Killduff, Iowa
Current Conditions -  °F | °C
As of 8:55 AM on Sunday 23 Nov 2014 (Local Time) from KTNU Reporting Station
Haze Haze  
Wind Chill: 50°   Ceiling: 400
Heat Index: 50°   Visibility: 3mi
Dew Point: 50°   Wind: 13mph
Humidity: 100%   Direction: 170°S
Pressure: 29.52"   Gusts: NA
Location:  41.61°N, 92.9°W
Report Text: KTNU 231455Z AUTO 17011KT 3SM BR OVC004 10/10 A2952 RMK AO2 P0003
Loading
Personal Weather Stations






























Interactive Weather Map New forecast layout! Learn more

10-Day Weather Forecast

Advertisements
Track Severe Weather on mobile